Time;durP1;ratioP1;P1;durP2;ratioP2;P2;SDS_P1;SDS_P2;PMS_P1;PMS_P2;Temp;Humidity;BMP_temperature;BMP_pressure;BME280_temperature;BME280_humidity;BME280_pressure;Samples;Min_cycle;Max_cycle;Signal;HPM_P1;HPM_P2
2021/06/18 00:01:55;;;;;;;6.35;5.72;;;;;;;20.42;60.33;95189.59;5069988;28;20524;-66
2021/06/18 00:04:21;;;;;;;5.93;5.32;;;;;;;20.38;60.61;95190.69;5087440;28;20047;-65
2021/06/18 00:06:46;;;;;;;4.97;4.50;;;;;;;20.40;60.71;95204.59;5088199;28;20039;-66
2021/06/18 00:09:11;;;;;;;5.82;5.05;;;;;;;20.40;60.39;95201.91;5071435;28;20527;-66
2021/06/18 00:11:37;;;;;;;5.80;5.30;;;;;;;20.37;60.06;95202.63;5088033;28;20490;-66
2021/06/18 00:14:05;;;;;;;5.80;5.20;;;;;;;20.33;59.93;95191.00;5086532;28;20024;-66
2021/06/18 00:16:31;;;;;;;6.40;5.03;;;;;;;20.30;59.97;95186.31;5088198;28;20257;-66
2021/06/18 00:18:56;;;;;;;5.15;4.65;;;;;;;20.25;59.51;95188.19;5069643;28;20577;-66
2021/06/18 00:21:21;;;;;;;6.43;5.38;;;;;;;20.21;59.45;95192.75;5090062;28;20044;-66
2021/06/18 00:23:47;;;;;;;7.43;4.90;;;;;;;20.20;59.20;95190.41;5087019;28;20036;-71
2021/06/18 00:26:12;;;;;;;7.40;5.03;;;;;;;20.13;59.49;95176.81;5087644;28;20127;-66
2021/06/18 00:28:37;;;;;;;6.47;5.00;;;;;;;20.14;59.64;95181.84;5091490;28;20036;-67
2021/06/18 00:31:03;;;;;;;5.32;4.93;;;;;;;20.12;59.36;95177.97;5091970;28;20040;-66
2021/06/18 00:33:29;;;;;;;4.80;4.40;;;;;;;20.02;59.25;95167.78;5091390;28;20024;-66
2021/06/18 00:35:56;;;;;;;5.30;4.80;;;;;;;20.09;59.31;95182.16;5075584;28;20462;-66
2021/06/18 00:38:21;;;;;;;6.25;4.93;;;;;;;20.02;59.53;95182.06;5091465;28;20056;-66
2021/06/18 00:40:47;;;;;;;5.47;4.95;;;;;;;20.00;59.08;95187.81;5091579;28;20028;-66
2021/06/18 00:43:12;;;;;;;5.10;4.57;;;;;;;19.86;59.12;95157.94;5073008;28;20051;-66
2021/06/18 00:45:37;;;;;;;5.22;4.70;;;;;;;19.93;58.96;95168.03;5091645;28;20563;-66
2021/06/18 00:48:04;;;;;;;4.85;4.45;;;;;;;19.89;58.84;95159.09;5093610;28;20031;-65
2021/06/18 00:50:30;;;;;;;4.90;4.50;;;;;;;19.98;58.87;95183.94;5091599;28;20040;-66
2021/06/18 00:52:56;;;;;;;5.47;5.00;;;;;;;19.95;58.98;95181.94;5072416;28;20129;-66
2021/06/18 00:55:21;;;;;;;7.45;4.70;;;;;;;19.86;59.22;95173.31;5072844;28;20032;-65
2021/06/18 00:57:47;;;;;;;6.20;4.50;;;;;;;19.69;59.38;95148.38;5091302;28;20511;-65
2021/06/18 01:00:13;;;;;;;5.43;4.85;;;;;;;19.87;59.54;95180.28;5093378;28;20044;-65
2021/06/18 01:02:39;;;;;;;5.55;5.15;;;;;;;19.82;59.75;95175.22;5090796;28;20499;-66
2021/06/18 01:05:08;;;;;;;5.95;4.78;;;;;;;19.81;60.21;95174.44;5091184;28;20066;-66
2021/06/18 01:07:41;;;;;;;5.10;4.70;;;;;;;19.79;60.62;95179.38;5091176;28;20036;-65
2021/06/18 01:10:28;;;;;;;4.85;4.50;;;;;;;19.72;60.79;95168.50;5090763;28;20040;-66
2021/06/18 01:13:15;;;;;;;6.53;5.38;;;;;;;19.74;60.96;95180.47;5086996;28;20512;-65
2021/06/18 01:15:43;;;;;;;7.10;5.13;;;;;;;19.69;61.06;95175.38;5070840;28;20699;-65
2021/06/18 01:18:14;;;;;;;6.75;5.80;;;;;;;19.67;61.40;95174.97;5072751;28;20081;-66
2021/06/18 01:21:00;;;;;;;5.55;5.15;;;;;;;19.63;61.51;95173.34;5089442;28;20032;-65
2021/06/18 01:23:47;;;;;;;5.85;4.90;;;;;;;19.59;61.48;95175.97;5073304;28;20044;-65
2021/06/18 01:26:47;;;;;;;5.40;5.00;;;;;;;19.56;61.39;95171.28;5070202;28;20044;-66
2021/06/18 01:29:13;;;;;;;5.45;4.30;;;;;;;19.42;61.63;95152.94;5056779;28;20210;-66
2021/06/18 01:31:45;;;;;;;5.53;4.97;;;;;;;19.46;61.23;95161.09;5080358;28;20549;-66
2021/06/18 01:34:15;;;;;;;5.22;4.70;;;;;;;19.41;61.56;95154.09;5090293;28;20402;-67
2021/06/18 01:36:47;;;;;;;6.78;4.72;;;;;;;19.35;61.42;95150.13;5090903;28;20027;-66
2021/06/18 01:39:14;;;;;;;5.22;4.75;;;;;;;19.37;61.62;95155.16;5091438;28;20180;-65
2021/06/18 01:41:41;;;;;;;5.20;4.80;;;;;;;19.32;61.74;95150.84;5090459;28;20115;-65
2021/06/18 01:44:08;;;;;;;5.45;4.90;;;;;;;19.30;61.68;95153.13;5089933;28;20039;-65
2021/06/18 01:46:35;;;;;;;4.97;4.57;;;;;;;19.28;61.63;95149.22;5090526;28;20413;-65
2021/06/18 01:49:06;;;;;;;5.10;4.70;;;;;;;19.25;61.40;95150.72;5090711;28;20036;-65
2021/06/18 01:51:32;;;;;;;4.93;4.60;;;;;;;19.24;61.63;95146.44;5090483;28;20031;-65
2021/06/18 01:53:59;;;;;;;5.25;4.65;;;;;;;19.24;61.71;95143.75;5086050;28;20052;-66
2021/06/18 01:56:26;;;;;;;5.40;5.03;;;;;;;19.19;61.56;95144.84;5089970;28;20478;-65
2021/06/18 01:58:55;;;;;;;5.03;4.63;;;;;;;19.21;61.59;95144.50;5090142;28;20047;-65
2021/06/18 02:01:23;;;;;;;4.57;4.28;;;;;;;19.20;61.57;95145.63;5090136;28;20505;-65
2021/06/18 02:03:50;;;;;;;4.90;4.40;;;;;;;19.06;61.07;95132.66;5089686;28;20496;-66
2021/06/18 02:06:18;;;;;;;4.80;4.35;;;;;;;19.14;60.72;95136.25;5091922;28;20020;-65
2021/06/18 02:08:46;;;;;;;4.82;4.38;;;;;;;19.07;60.62;95128.06;5085135;28;20029;-65
2021/06/18 02:11:13;;;;;;;5.18;4.68;;;;;;;19.07;60.64;95122.66;5069483;28;20048;-65
2021/06/18 02:13:40;;;;;;;6.28;5.47;;;;;;;19.01;60.73;95116.78;5069323;28;20029;-65
2021/06/18 02:16:07;;;;;;;5.18;4.68;;;;;;;19.01;60.75;95119.47;5051670;28;20065;-66
2021/06/18 02:18:33;;;;;;;7.95;4.63;;;;;;;18.96;60.64;95119.78;5070488;28;20025;-64
2021/06/18 02:21:01;;;;;;;4.65;4.35;;;;;;;19.04;60.55;95139.53;5091745;28;20586;-65
2021/06/18 02:23:32;;;;;;;4.75;4.35;;;;;;;19.05;60.37;95144.59;5089087;28;20124;-64
2021/06/18 02:25:59;;;;;;;5.50;4.50;;;;;;;19.01;60.39;95141.06;5089322;28;20035;-64
2021/06/18 02:28:25;;;;;;;5.35;4.45;;;;;;;19.02;60.54;95137.22;5071487;28;20127;-65
2021/06/18 02:30:51;;;;;;;5.10;4.60;;;;;;;19.03;60.66;95154.16;5089598;28;20114;-64
2021/06/18 02:33:16;;;;;;;5.18;4.55;;;;;;;19.00;60.70;95152.19;5072819;28;20024;-64
2021/06/18 02:35:44;;;;;;;5.32;4.93;;;;;;;18.96;60.88;95154.81;5071143;28;20438;-66
2021/06/18 02:38:11;;;;;;;5.53;4.60;;;;;;;18.88;60.67;95136.94;5089290;28;20048;-64
2021/06/18 02:40:37;;;;;;;6.95;4.80;;;;;;;18.99;60.75;95162.19;5088865;28;20531;-65
2021/06/18 02:43:04;;;;;;;5.20;4.70;;;;;;;18.98;60.70;95166.00;5070530;28;20068;-65
2021/06/18 02:45:29;;;;;;;5.63;4.90;;;;;;;18.95;61.20;95166.75;5089271;28;20028;-65
2021/06/18 02:48:08;;;;;;;5.78;4.85;;;;;;;18.91;61.15;95165.88;5091039;28;20085;-65
2021/06/18 02:50:58;;;;;;;5.80;4.93;;;;;;;18.90;61.42;95169.72;5087444;28;20040;-65
2021/06/18 02:53:33;;;;;;;5.80;5.22;;;;;;;18.90;61.39;95175.13;5088459;28;20501;-64
2021/06/18 02:56:17;;;;;;;5.03;4.63;;;;;;;18.89;61.38;95185.13;5087282;28;20051;-64
2021/06/18 02:59:09;;;;;;;5.80;5.28;;;;;;;18.89;61.50;95178.94;5088918;28;20048;-64
2021/06/18 03:01:38;;;;;;;5.82;5.32;;;;;;;18.86;61.58;95182.34;5070340;28;20060;-65
2021/06/18 03:04:06;;;;;;;6.13;5.05;;;;;;;18.68;62.00;95161.22;5088686;28;20059;-64
2021/06/18 03:06:34;;;;;;;5.40;4.90;;;;;;;18.77;62.16;95166.38;5070820;28;20138;-66
2021/06/18 03:09:05;;;;;;;5.72;5.32;;;;;;;18.84;62.12;95181.94;5090525;28;20031;-65
2021/06/18 03:11:35;;;;;;;5.53;5.13;;;;;;;18.83;62.27;95191.13;5088528;28;20082;-65
2021/06/18 03:14:05;;;;;;;5.70;5.30;;;;;;;18.84;62.20;95195.41;5088610;28;20035;-65
2021/06/18 03:16:31;;;;;;;6.00;5.40;;;;;;;18.82;62.37;95192.28;5088866;28;20164;-65
2021/06/18 03:18:59;;;;;;;6.38;4.90;;;;;;;18.74;62.22;95185.19;5088800;28;20089;-65
2021/06/18 03:21:26;;;;;;;5.43;5.03;;;;;;;18.70;62.39;95175.13;5090837;28;20106;-65
2021/06/18 03:23:53;;;;;;;5.45;5.00;;;;;;;18.72;62.31;95179.38;5087746;28;20040;-65
2021/06/18 03:26:20;;;;;;;5.55;5.05;;;;;;;18.72;62.30;95173.97;5088378;28;20024;-65
2021/06/18 03:28:46;;;;;;;5.30;4.93;;;;;;;18.85;62.44;95186.97;5088947;28;20043;-65
2021/06/18 03:31:13;;;;;;;5.78;4.88;;;;;;;18.88;62.24;95185.47;5088914;28;20543;-65
2021/06/18 03:33:40;;;;;;;7.22;5.32;;;;;;;18.79;62.30;95174.91;5088285;28;20028;-64
2021/06/18 03:36:06;;;;;;;6.40;5.00;;;;;;;18.97;62.21;95194.09;5090517;28;20020;-65
2021/06/18 03:38:32;;;;;;;8.85;5.60;;;;;;;18.99;62.02;95191.84;5070364;28;20135;-65
2021/06/18 03:40:59;;;;;;;5.68;5.13;;;;;;;19.09;61.88;95202.06;5086597;28;20125;-65
2021/06/18 03:43:25;;;;;;;5.57;5.07;;;;;;;19.09;61.68;95191.28;5070082;28;20177;-65
2021/06/18 03:45:55;;;;;;;5.72;5.13;;;;;;;19.22;61.50;95198.06;5088510;28;20548;-65
2021/06/18 03:48:21;;;;;;;6.90;4.75;;;;;;;19.21;60.99;95203.81;5090568;28;20039;-65
2021/06/18 03:50:47;;;;;;;7.30;4.55;;;;;;;19.34;61.31;95207.88;5070320;28;20069;-65
2021/06/18 03:53:16;;;;;;;6.85;4.90;;;;;;;19.36;61.02;95199.47;5073543;28;20040;-65
2021/06/18 03:55:45;;;;;;;6.10;5.00;;;;;;;19.51;60.92;95214.75;5077646;28;20058;-65
2021/06/18 03:58:12;;;;;;;4.82;4.43;;;;;;;19.48;60.75;95204.69;5088395;28;20032;-65
2021/06/18 04:00:41;;;;;;;5.22;4.82;;;;;;;19.64;60.63;95220.78;5088335;28;20027;-66
2021/06/18 04:03:07;;;;;;;4.95;4.30;;;;;;;19.74;60.11;95214.78;5076298;28;20173;-65
2021/06/18 04:05:34;;;;;;;4.95;4.45;;;;;;;20.02;59.57;95214.47;5076891;28;20036;-65
2021/06/18 04:08:01;;;;;;;5.07;3.97;;;;;;;20.30;58.76;95203.31;5095080;28;20048;-65
2021/06/18 04:10:27;;;;;;;7.10;4.50;;;;;;;20.65;58.10;95200.34;5069978;28;20489;-65
2021/06/18 04:12:53;;;;;;;4.80;4.50;;;;;;;20.92;57.29;95206.44;5094348;28;20075;-66
2021/06/18 04:15:22;;;;;;;4.55;4.25;;;;;;;21.14;56.49;95188.56;5096855;28;20429;-64
2021/06/18 04:17:48;;;;;;;4.68;4.28;;;;;;;21.38;55.33;95192.69;5094780;28;20039;-64
2021/06/18 04:20:14;;;;;;;5.07;4.05;;;;;;;;;;5094968;28;20044;-64
2021/06/18 04:22:39;;;;;;;4.50;4.10;;;;;;;21.94;53.70;95204.41;5066196;28;20089;-65
2021/06/18 04:25:05;;;;;;;8.23;4.38;;;;;;;22.14;53.01;95199.56;5073715;28;20127;-64
2021/06/18 04:27:32;;;;;;;4.78;3.92;;;;;;;22.39;52.49;95203.19;5074503;28;20030;-64
2021/06/18 04:29:57;;;;;;;6.15;4.22;;;;;;;22.66;51.16;95209.16;5096693;28;20081;-65
2021/06/18 04:32:23;;;;;;;4.82;3.72;;;;;;;22.82;50.61;95200.69;5094217;28;20044;-66
2021/06/18 04:34:48;;;;;;;5.88;3.80;;;;;;;23.03;50.32;95210.88;5076301;28;20044;-65
2021/06/18 04:37:14;;;;;;;5.85;3.97;;;;;;;23.14;49.75;95203.59;5076494;28;20051;-65
2021/06/18 04:39:39;;;;;;;4.70;4.03;;;;;;;23.24;49.82;95207.50;5075921;28;20031;-65
2021/06/18 04:42:05;;;;;;;7.88;3.83;;;;;;;23.44;49.06;95206.00;5096280;28;20081;-65
2021/06/18 04:44:30;;;;;;;7.07;4.05;;;;;;;23.52;48.65;95206.78;5094277;28;20108;-66
2021/06/18 04:46:56;;;;;;;4.88;4.45;;;;;;;23.66;48.29;95198.69;5094555;28;20738;-66
2021/06/18 04:49:21;;;;;;;4.15;3.80;;;;;;;23.83;48.40;95205.28;5094485;28;20447;-66
2021/06/18 04:51:46;;;;;;;4.43;4.03;;;;;;;24.06;48.07;95221.22;5094559;27;20492;-66
2021/06/18 04:54:12;;;;;;;5.38;3.50;;;;;;;24.15;48.09;95216.16;5077243;28;20465;-65
2021/06/18 04:56:39;;;;;;;4.68;4.03;;;;;;;24.32;47.89;95222.75;5094148;28;20051;-65
2021/06/18 04:59:05;;;;;;;5.80;3.97;;;;;;;24.34;47.64;95207.59;5094322;27;20036;-65
2021/06/18 05:01:30;;;;;;;5.78;3.80;;;;;;;24.42;48.11;95216.56;5094424;28;20036;-65
2021/06/18 05:03:55;;;;;;;5.00;4.47;;;;;;;23.93;49.85;95215.38;5093780;28;20032;-64
2021/06/18 05:06:21;;;;;;;4.43;3.63;;;;;;;23.86;50.65;95212.66;5095866;28;20027;-64
2021/06/18 05:08:46;;;;;;;6.65;4.32;;;;;;;23.32;52.75;95215.25;5094398;28;20089;-66
2021/06/18 05:11:12;;;;;;;6.80;4.18;;;;;;;23.40;52.87;95216.06;5093488;28;20047;-65
2021/06/18 05:13:37;;;;;;;9.13;4.20;;;;;;;22.98;54.22;95217.50;5091437;28;20122;-66
2021/06/18 05:16:03;;;;;;;6.07;4.10;;;;;;;22.81;54.92;95218.13;5073026;28;20396;-66
2021/06/18 05:18:28;;;;;;;6.10;3.88;;;;;;;23.52;53.35;95225.78;5092909;28;20476;-67
2021/06/18 05:20:54;;;;;;;5.85;3.72;;;;;;;23.53;53.21;95224.59;5091005;28;20029;-66
2021/06/18 05:23:19;;;;;;;5.05;3.88;;;;;;;23.66;52.49;95206.84;5090432;28;20367;-66
2021/06/18 05:25:44;;;;;;;4.65;3.67;;;;;;;23.18;53.25;95226.06;5090279;28;20072;-65
2021/06/18 05:28:10;;;;;;;6.15;3.88;;;;;;;23.40;53.30;95226.16;5090598;28;20040;-65
2021/06/18 05:30:35;;;;;;;6.30;4.00;;;;;;;23.79;52.63;95229.72;5090938;28;20107;-64
2021/06/18 05:33:01;;;;;;;7.45;3.50;;;;;;;24.37;51.71;95227.81;5092352;28;20107;-65
2021/06/18 05:35:26;;;;;;;4.68;3.58;;;;;;;24.69;50.54;95235.13;5090529;28;20040;-65
2021/06/18 05:37:52;;;;;;;5.35;3.72;;;;;;;24.94;48.91;95216.81;5072139;28;20040;-66
2021/06/18 05:40:17;;;;;;;10.02;4.13;;;;;;;24.51;49.22;95233.22;5090251;28;20048;-65
2021/06/18 05:42:42;;;;;;;6.50;4.30;;;;;;;24.96;48.52;95243.59;5070037;28;20023;-66
2021/06/18 05:45:09;;;;;;;7.18;3.95;;;;;;;25.37;48.11;95241.13;5072408;28;20033;-65
2021/06/18 05:47:34;;;;;;;4.57;4.10;;;;;;;25.53;47.92;95238.72;5070355;28;20037;-65
2021/06/18 05:49:59;;;;;;;8.18;4.35;;;;;;;24.87;48.57;95239.34;5070208;28;20101;-64
2021/06/18 05:52:25;;;;;;;5.80;4.25;;;;;;;24.70;48.87;95244.84;5069585;28;20045;-67
2021/06/18 05:54:50;;;;;;;18.50;5.40;;;;;;;24.92;48.41;95215.63;5070784;28;20044;-65
2021/06/18 05:57:15;;;;;;;5.28;4.25;;;;;;;24.74;48.95;95229.31;5092179;28;20062;-67
2021/06/18 05:59:41;;;;;;;6.75;3.88;;;;;;;24.61;48.08;95240.59;5090622;28;20098;-67
2021/06/18 06:02:07;;;;;;;15.90;4.38;;;;;;;24.02;48.34;95245.66;5089777;28;20036;-65
2021/06/18 06:04:32;;;;;;;8.25;3.63;;;;;;;23.92;49.59;95230.13;5081222;28;20028;-67
2021/06/18 06:06:57;;;;;;;10.98;3.85;;;;;;;23.83;49.38;95229.72;5068647;28;20149;-66
2021/06/18 06:09:23;;;;;;;5.43;3.70;;;;;;;24.17;48.23;95226.66;5071450;28;20441;-67
2021/06/18 06:11:48;;;;;;;4.20;3.78;;;;;;;24.54;47.46;95237.13;5069349;28;20075;-70
2021/06/18 06:14:17;;;;;;;5.53;3.50;;;;;;;23.93;46.85;95225.47;5083629;28;20240;-66
2021/06/18 06:16:45;;;;;;;7.40;3.92;;;;;;;24.33;46.89;95237.88;5071607;28;20397;-67
2021/06/18 06:19:11;;;;;;;7.25;3.53;;;;;;;24.68;46.37;95242.53;5084247;28;20125;-66
2021/06/18 06:21:36;;;;;;;5.20;3.67;;;;;;;24.54;45.49;95239.84;5069855;28;20462;-66
2021/06/18 06:24:02;;;;;;;7.18;3.95;;;;;;;24.60;45.15;95221.94;5057092;28;20177;-66
2021/06/18 06:26:27;;;;;;;4.47;4.05;;;;;;;25.03;45.06;95219.88;5083267;28;20393;-65
2021/06/18 06:28:53;;;;;;;4.07;3.67;;;;;;;25.11;45.26;95221.41;5089584;28;20043;-65
2021/06/18 06:31:18;;;;;;;16.38;4.25;;;;;;;25.50;44.72;95223.19;5089471;28;20169;-64
2021/06/18 06:33:44;;;;;;;5.35;3.25;;;;;;;25.75;44.45;95235.91;5089132;28;20024;-65
2021/06/18 06:36:10;;;;;;;7.30;4.18;;;;;;;25.94;42.95;95235.34;5091429;28;20024;-65
2021/06/18 06:38:36;;;;;;;5.40;3.40;;;;;;;26.05;43.53;95224.38;5089434;28;20051;-65
2021/06/18 06:41:01;;;;;;;5.10;4.45;;;;;;;25.74;42.45;95224.19;5088745;28;20055;-66
2021/06/18 06:43:27;;;;;;;4.88;3.70;;;;;;;25.70;43.43;95228.91;5074493;28;20036;-67
2021/06/18 06:45:52;;;;;;;8.52;3.92;;;;;;;25.80;42.57;95216.41;5065898;28;20041;-66
2021/06/18 06:48:18;;;;;;;6.97;3.65;;;;;;;25.97;42.80;95214.72;5051154;28;20024;-67
2021/06/18 06:50:43;;;;;;;7.57;4.38;;;;;;;26.15;42.76;95223.50;5049476;28;20052;-67
2021/06/18 06:53:09;;;;;;;6.15;4.40;;;;;;;25.90;42.34;95232.69;5047261;28;20039;-67
2021/06/18 06:55:35;;;;;;;4.15;3.78;;;;;;;25.96;43.23;95233.03;5057290;28;20068;-67
2021/06/18 06:58:04;;;;;;;7.28;3.88;;;;;;;26.13;42.78;95239.50;5072870;28;20032;-67
2021/06/18 07:00:29;;;;;;;4.38;3.85;;;;;;;26.26;42.92;95240.59;5090984;28;20020;-67
2021/06/18 07:02:55;;;;;;;5.68;4.10;;;;;;;26.30;41.89;95233.13;5070271;28;20044;-67
2021/06/18 07:05:20;;;;;;;6.30;4.18;;;;;;;26.34;41.58;95228.41;5089168;28;20036;-68
2021/06/18 07:07:46;;;;;;;5.40;4.00;;;;;;;26.37;41.46;95240.47;5078525;28;20044;-67
2021/06/18 07:10:12;;;;;;;7.25;4.07;;;;;;;25.90;42.89;95235.41;5068025;28;20093;-67
2021/06/18 07:12:37;;;;;;;5.82;4.30;;;;;;;26.08;41.85;95227.06;5069229;28;20024;-69
2021/06/18 07:15:04;;;;;;;4.18;3.65;;;;;;;26.26;42.43;95237.84;5090830;28;20161;-67
2021/06/18 07:17:29;;;;;;;4.07;3.78;;;;;;;26.35;42.04;95240.88;5072289;28;20058;-68
2021/06/18 07:19:56;;;;;;;4.75;4.15;;;;;;;26.51;42.00;95243.09;5062168;28;20095;-68
2021/06/18 07:22:22;;;;;;;5.38;3.90;;;;;;;26.60;41.48;95234.44;5088217;28;20032;-68
2021/06/18 07:24:48;;;;;;;5.38;4.22;;;;;;;26.86;41.48;95252.88;5088048;28;20051;-67
2021/06/18 07:27:14;;;;;;;4.55;4.07;;;;;;;26.98;41.37;95248.09;5090218;28;20072;-69
2021/06/18 07:29:41;;;;;;;4.75;3.60;;;;;;;27.06;41.27;95241.34;5088719;28;20518;-68
2021/06/18 07:32:08;;;;;;;4.05;3.75;;;;;;;27.25;40.79;95256.38;5088183;28;20513;-67
2021/06/18 07:34:34;;;;;;;5.10;4.20;;;;;;;27.31;40.50;95244.59;5070152;28;20044;-67
2021/06/18 07:36:59;;;;;;;7.22;4.57;;;;;;;27.27;41.02;95262.19;5088508;28;20051;-68
2021/06/18 07:39:24;;;;;;;10.75;4.55;;;;;;;27.13;40.49;95257.69;5090585;28;20370;-72
2021/06/18 07:41:50;;;;;;;6.57;4.57;;;;;;;27.13;40.94;95246.78;5087926;28;20040;-68
2021/06/18 07:44:15;;;;;;;5.88;3.80;;;;;;;27.29;41.89;95241.50;5088128;28;20044;-80
2021/06/18 07:46:41;;;;;;;7.93;4.47;;;;;;;27.07;42.04;95251.09;5070667;28;20036;-86
2021/06/18 07:49:07;;;;;;;5.47;4.13;;;;;;;26.61;42.46;95264.03;5090334;28;20044;-69
2021/06/18 07:51:32;;;;;;;6.57;4.43;;;;;;;26.31;43.69;95242.06;5088821;28;20048;-69
2021/06/18 07:54:00;;;;;;;6.93;5.32;;;;;;;26.54;43.45;95260.63;5089845;28;20026;-73
2021/06/18 07:56:27;;;;;;;4.90;4.50;;;;;;;26.22;44.04;95253.47;5089544;28;20028;-84
2021/06/18 07:58:53;;;;;;;5.90;4.57;;;;;;;26.73;43.07;95262.78;5071292;28;20059;-80
2021/06/18 08:01:19;;;;;;;7.90;4.75;;;;;;;26.22;43.62;95264.38;5089209;28;20040;-69
2021/06/18 08:03:44;;;;;;;6.72;5.20;;;;;;;26.25;43.60;95266.28;5087902;28;20585;-69
2021/06/18 08:06:10;;;;;;;9.00;5.28;;;;;;;26.54;43.08;95257.88;5090645;28;20024;-69
2021/06/18 08:08:35;;;;;;;5.15;4.60;;;;;;;26.95;42.58;95258.63;5069925;28;20044;-70
2021/06/18 08:11:00;;;;;;;10.38;4.70;;;;;;;26.49;43.82;95245.47;5087940;28;20052;-70
2021/06/18 08:13:26;;;;;;;7.40;4.88;;;;;;;26.51;44.34;95242.31;5087497;28;20485;-70
2021/06/18 08:15:52;;;;;;;8.85;4.70;;;;;;;26.68;44.34;95236.69;5088226;28;20549;-73
2021/06/18 08:18:23;;;;;;;8.93;4.97;;;;;;;27.08;43.57;95248.00;5090301;28;20492;-80
2021/06/18 08:20:48;;;;;;;8.73;4.50;;;;;;;26.88;44.08;95247.78;5088006;28;20028;-68
2021/06/18 08:23:14;;;;;;;12.77;4.57;;;;;;;26.70;43.93;95247.19;5087668;28;20588;-67
2021/06/18 08:25:41;;;;;;;5.78;4.65;;;;;;;26.57;44.12;95235.25;5087728;28;20071;-70
2021/06/18 08:28:07;;;;;;;7.47;4.45;;;;;;;27.24;43.27;95244.69;5086447;28;20036;-70
2021/06/18 08:30:33;;;;;;;7.90;4.30;;;;;;;27.35;43.29;95239.84;5088054;28;20490;-70
2021/06/18 08:32:58;;;;;;;5.97;4.20;;;;;;;27.63;42.81;95227.75;5089615;28;20042;-71
2021/06/18 08:35:23;;;;;;;6.50;4.20;;;;;;;27.51;42.65;95235.75;5087860;28;20031;-70
2021/06/18 08:37:49;;;;;;;6.85;4.50;;;;;;;27.62;42.18;95252.78;5088052;28;20032;-71
2021/06/18 08:40:15;;;;;;;6.60;4.30;;;;;;;27.50;43.06;95242.41;5087652;28;20135;-72
2021/06/18 08:42:41;;;;;;;7.43;4.75;;;;;;;27.71;42.76;95247.59;5087183;28;20027;-68
2021/06/18 08:45:08;;;;;;;5.07;4.50;;;;;;;27.77;41.74;95251.41;5089774;28;20032;-78
2021/06/18 08:47:34;;;;;;;6.40;4.90;;;;;;;27.65;41.97;95238.28;5070330;28;20093;-71
2021/06/18 08:50:00;;;;;;;6.35;4.65;;;;;;;27.67;42.21;95246.84;5091271;28;20178;-66
2021/06/18 08:52:25;;;;;;;7.68;4.90;;;;;;;28.01;42.88;95229.59;5091156;28;20131;-64
2021/06/18 08:54:51;;;;;;;11.40;5.00;;;;;;;27.70;42.76;95246.03;5091604;28;20032;-65
2021/06/18 08:57:19;;;;;;;8.05;5.03;;;;;;;27.54;43.23;95240.38;5092900;28;20032;-65
2021/06/18 08:59:46;;;;;;;9.05;4.72;;;;;;;28.04;41.83;95234.22;5073194;28;20398;-64
2021/06/18 09:02:13;;;;;;;6.10;5.50;;;;;;;27.80;43.12;95264.28;5072805;28;20148;-65
2021/06/18 09:05:13;;;;;;;6.47;5.30;;;;;;;28.19;42.09;95260.16;5091149;28;20178;-64
2021/06/18 09:07:47;;;;;;;15.88;5.07;;;;;;;27.97;41.37;95262.47;5073271;28;20047;-64
2021/06/18 09:10:33;;;;;;;5.90;5.00;;;;;;;28.16;41.58;95264.50;5091090;28;20067;-64
2021/06/18 09:13:09;;;;;;;7.25;5.30;;;;;;;28.15;41.84;95256.69;5089255;28;20512;-65
2021/06/18 09:15:35;;;;;;;5.53;5.13;;;;;;;28.34;41.87;95253.28;5091236;28;20020;-64
2021/06/18 09:18:21;;;;;;;5.80;4.60;;;;;;;28.17;42.48;95254.34;5093145;28;20085;-64
2021/06/18 09:20:47;;;;;;;7.22;5.13;;;;;;;28.11;42.27;95243.09;5072761;28;20048;-65
2021/06/18 09:23:24;;;;;;;7.38;4.90;;;;;;;28.10;42.18;95251.69;5090486;28;20397;-65
2021/06/18 09:26:15;;;;;;;5.38;4.68;;;;;;;28.27;42.15;95253.41;5090376;28;20040;-64
2021/06/18 09:29:03;;;;;;;7.30;4.80;;;;;;;28.10;41.05;95251.69;5090752;28;20109;-64
2021/06/18 09:31:35;;;;;;;5.13;4.50;;;;;;;28.53;40.89;95240.88;5090602;28;20039;-64
2021/06/18 09:34:03;;;;;;;4.60;4.25;;;;;;;28.19;41.20;95244.53;5090261;28;20032;-64
2021/06/18 09:36:28;;;;;;;5.07;4.57;;;;;;;28.47;39.13;95246.06;5092714;28;20024;-64
2021/06/18 09:38:56;;;;;;;4.75;4.30;;;;;;;28.44;38.67;95246.88;5090638;28;20040;-64
2021/06/18 09:41:44;;;;;;;7.15;4.25;;;;;;;28.71;37.83;95238.59;5090008;28;20056;-64
2021/06/18 09:44:17;;;;;;;10.07;4.78;;;;;;;28.99;37.47;95239.28;5089941;28;20028;-64
2021/06/18 09:46:53;;;;;;;7.43;4.68;;;;;;;28.92;38.10;95240.16;5090509;28;20111;-64
2021/06/18 09:49:31;;;;;;;7.43;5.05;;;;;;;28.15;40.98;95253.97;5090297;28;20693;-64
2021/06/18 09:52:05;;;;;;;7.15;4.63;;;;;;;28.50;40.67;95238.97;5090387;28;20036;-64
2021/06/18 09:54:34;;;;;;;6.70;4.78;;;;;;;28.11;40.59;95250.53;5073678;28;20027;-64
2021/06/18 09:57:20;;;;;;;9.15;4.32;;;;;;;28.56;39.03;95242.78;5090343;28;20127;-64
2021/06/18 10:00:01;;;;;;;6.20;4.70;;;;;;;28.70;38.83;95228.06;5089528;28;20036;-63
2021/06/18 10:02:49;;;;;;;4.88;4.47;;;;;;;28.77;38.82;95241.63;5071803;28;20379;-64
2021/06/18 10:05:19;;;;;;;7.05;4.60;;;;;;;29.00;37.80;95243.56;5089653;28;20498;-64
2021/06/18 10:07:47;;;;;;;8.82;4.47;;;;;;;29.03;37.86;95234.50;5089888;28;20072;-64
2021/06/18 10:10:24;;;;;;;6.18;4.20;;;;;;;28.73;36.54;95244.41;5089839;28;20032;-65
2021/06/18 10:12:50;;;;;;;6.13;4.20;;;;;;;29.47;37.14;95241.41;5088742;28;20039;-63
2021/06/18 10:15:21;;;;;;;7.03;4.25;;;;;;;29.66;36.87;95228.13;5073730;28;20031;-62
2021/06/18 10:17:48;;;;;;;4.40;4.00;;;;;;;29.76;36.18;95238.84;5071713;28;20389;-65
2021/06/18 10:20:16;;;;;;;7.22;4.03;;;;;;;29.48;35.78;95237.50;5071640;28;20032;-64
2021/06/18 10:22:58;;;;;;;6.45;4.28;;;;;;;29.42;35.35;95239.16;5070962;28;20385;-63
2021/06/18 10:25:30;;;;;;;8.52;4.45;;;;;;;28.90;36.42;95239.03;5089631;28;20036;-63
2021/06/18 10:28:02;;;;;;;5.10;3.80;;;;;;;29.18;36.64;95221.31;5088953;28;20173;-62
2021/06/18 10:30:36;;;;;;;4.93;4.05;;;;;;;28.87;34.73;95239.84;5073577;28;20385;-63
2021/06/18 10:33:22;;;;;;;5.45;4.05;;;;;;;29.79;35.69;95231.75;5071593;28;20040;-63
2021/06/18 10:35:56;;;;;;;5.47;3.65;;;;;;;29.28;33.49;95214.84;5052999;28;20394;-65
2021/06/18 10:38:35;;;;;;;4.85;3.50;;;;;;;29.44;32.98;95238.75;5069308;28;20040;-64
2021/06/18 10:41:02;;;;;;;6.07;3.97;;;;;;;29.75;31.44;95229.09;5050808;28;20044;-65
2021/06/18 10:43:57;;;;;;;4.95;3.90;;;;;;;29.60;32.19;95230.59;5075923;28;20039;-65
2021/06/18 10:46:28;;;;;;;4.38;3.97;;;;;;;29.50;35.20;95224.13;5087170;28;20044;-65
2021/06/18 10:48:55;;;;;;;;;;;;;;;29.56;34.14;95232.66;5089632;28;20054;-69
2021/06/18 10:51:29;;;;;;;4.07;3.70;;;;;;;29.60;34.45;95219.66;5091032;28;19919;-68
2021/06/18 10:53:55;;;;;;;4.97;3.97;;;;;;;29.56;34.33;95224.44;5070426;28;20044;-67
2021/06/18 10:56:49;;;;;;;4.15;3.85;;;;;;;30.13;34.03;95222.38;5088624;28;20036;-65
2021/06/18 10:59:33;;;;;;;4.30;4.00;;;;;;;29.66;33.59;95228.13;5081028;28;20058;-67
2021/06/18 11:02:01;;;;;;;4.63;3.85;;;;;;;29.35;33.37;95208.44;5089062;28;20047;-66
2021/06/18 11:04:42;;;;;;;3.88;3.55;;;;;;;29.99;32.79;95217.97;5070249;28;20036;-64
2021/06/18 11:07:34;;;;;;;4.38;3.78;;;;;;;29.99;33.28;95221.50;5070811;28;20101;-65
2021/06/18 11:10:12;;;;;;;7.03;4.00;;;;;;;30.53;33.06;95226.47;5060202;28;20051;-65
2021/06/18 11:12:41;;;;;;;8.02;3.60;;;;;;;30.19;32.87;95220.66;5087084;28;20416;-65
2021/06/18 11:15:27;;;;;;;5.32;3.70;;;;;;;30.92;31.56;95216.44;5072186;28;20535;-65
2021/06/18 11:18:18;;;;;;;4.07;3.65;;;;;;;30.80;31.13;95204.19;5074145;28;20044;-70
2021/06/18 11:20:46;;;;;;;5.45;3.95;;;;;;;30.10;31.43;95212.22;5088818;28;20729;-67
2021/06/18 11:23:32;;;;;;;6.88;3.88;;;;;;;30.30;30.63;95212.91;5070136;28;20032;-67
2021/06/18 11:26:09;;;;;;;6.35;3.78;;;;;;;30.55;30.61;95210.31;5087921;28;20181;-68
2021/06/18 11:28:46;;;;;;;3.92;3.58;;;;;;;30.37;30.62;95207.28;5088579;28;20497;-68
2021/06/18 11:31:36;;;;;;;4.18;3.78;;;;;;;30.48;30.87;95199.53;5088503;28;20048;-67
2021/06/18 11:34:02;;;;;;;5.57;3.80;;;;;;;30.35;30.58;95189.69;5087928;28;20040;-68
2021/06/18 11:36:31;;;;;;;5.18;4.07;;;;;;;30.17;31.36;95196.41;5090368;28;20039;-68
2021/06/18 11:39:24;;;;;;;3.92;3.53;;;;;;;30.07;29.80;95191.16;5088172;28;20036;-68
2021/06/18 11:41:57;;;;;;;4.18;3.60;;;;;;;30.10;30.02;95195.75;5066582;28;20458;-68
2021/06/18 11:44:25;;;;;;;8.57;3.95;;;;;;;30.22;29.98;95195.13;5087768;28;20439;-68